sensor_id;sensor_type;location;lat;lon;timestamp;pressure;altitude;pressure_sealevel;temperature;humidity
42603;BME280;28233;55.748;48.752;2022-07-19T00:00:50;98141.41;;;20.07;100.00
42603;BME280;28233;55.748;48.752;2022-07-19T00:02:53;98138.66;;;20.03;100.00
42603;BME280;28233;55.748;48.752;2022-07-19T00:04:56;98142.69;;;20.02;100.00
42603;BME280;28233;55.748;48.752;2022-07-19T00:06:58;98148.63;;;20.04;100.00
42603;BME280;28233;55.748;48.752;2022-07-19T00:09:03;98148.94;;;20.10;100.00
42603;BME280;28233;55.748;48.752;2022-07-19T00:11:06;98152.84;;;20.16;100.00
42603;BME280;28233;55.748;48.752;2022-07-19T00:13:09;98156.41;;;20.17;100.00
42603;BME280;28233;55.748;48.752;2022-07-19T00:15:13;98153.16;;;20.22;100.00
42603;BME280;28233;55.748;48.752;2022-07-19T00:17:16;98153.63;;;20.17;100.00
42603;BME280;28233;55.748;48.752;2022-07-19T00:19:19;98152.00;;;20.19;100.00
42603;BME280;28233;55.748;48.752;2022-07-19T00:21:22;98142.19;;;20.08;100.00
42603;BME280;28233;55.748;48.752;2022-07-19T00:23:24;98139.88;;;20.02;100.00
42603;BME280;28233;55.748;48.752;2022-07-19T00:25:27;98143.94;;;19.98;100.00
42603;BME280;28233;55.748;48.752;2022-07-19T00:27:29;98145.94;;;19.97;100.00
42603;BME280;28233;55.748;48.752;2022-07-19T00:29:32;98143.16;;;19.97;100.00
42603;BME280;28233;55.748;48.752;2022-07-19T00:31:34;98140.34;;;19.97;100.00
42603;BME280;28233;55.748;48.752;2022-07-19T00:33:38;98139.13;;;19.98;100.00
42603;BME280;28233;55.748;48.752;2022-07-19T00:35:41;98136.44;;;19.91;100.00
42603;BME280;28233;55.748;48.752;2022-07-19T00:37:43;98123.28;;;19.92;100.00
42603;BME280;28233;55.748;48.752;2022-07-19T00:39:49;98113.41;;;19.87;100.00
42603;BME280;28233;55.748;48.752;2022-07-19T00:41:52;98117.50;;;19.79;100.00
42603;BME280;28233;55.748;48.752;2022-07-19T00:43:56;98114.03;;;19.71;100.00
42603;BME280;28233;55.748;48.752;2022-07-19T00:45:59;98116.03;;;19.67;100.00
42603;BME280;28233;55.748;48.752;2022-07-19T00:48:04;98105.34;;;19.62;100.00
42603;BME280;28233;55.748;48.752;2022-07-19T00:50:07;98092.22;;;19.59;100.00
42603;BME280;28233;55.748;48.752;2022-07-19T00:52:10;98091.91;;;19.53;100.00
42603;BME280;28233;55.748;48.752;2022-07-19T00:54:16;98104.34;;;19.45;100.00
42603;BME280;28233;55.748;48.752;2022-07-19T00:56:19;98107.19;;;19.41;100.00
42603;BME280;28233;55.748;48.752;2022-07-19T00:58:23;98104.78;;;19.40;100.00
42603;BME280;28233;55.748;48.752;2022-07-19T01:00:29;98100.44;;;19.39;100.00
42603;BME280;28233;55.748;48.752;2022-07-19T01:02:34;98092.13;;;19.35;100.00
42603;BME280;28233;55.748;48.752;2022-07-19T01:04:37;98096.97;;;19.31;100.00
42603;BME280;28233;55.748;48.752;2022-07-19T01:06:41;98094.16;;;19.31;100.00
42603;BME280;28233;55.748;48.752;2022-07-19T01:08:44;98091.41;;;19.28;100.00
42603;BME280;28233;55.748;48.752;2022-07-19T01:10:46;98084.22;;;19.30;100.00
42603;BME280;28233;55.748;48.752;2022-07-19T01:12:49;98084.22;;;19.30;100.00
42603;BME280;28233;55.748;48.752;2022-07-19T01:14:56;98080.25;;;19.31;100.00
42603;BME280;28233;55.748;48.752;2022-07-19T01:17:00;98086.53;;;19.35;100.00
42603;BME280;28233;55.748;48.752;2022-07-19T01:19:05;98079.00;;;19.36;100.00
42603;BME280;28233;55.748;48.752;2022-07-19T01:21:18;98071.44;;;19.36;100.00
42603;BME280;28233;55.748;48.752;2022-07-19T01:23:21;98076.59;;;19.38;100.00
42603;BME280;28233;55.748;48.752;2022-07-19T01:25:26;98079.28;;;19.45;100.00
42603;BME280;28233;55.748;48.752;2022-07-19T01:27:28;98074.03;;;19.51;100.00
42603;BME280;28233;55.748;48.752;2022-07-19T01:29:32;98064.91;;;19.50;100.00
42603;BME280;28233;55.748;48.752;2022-07-19T01:31:38;98072.03;;;19.51;100.00
42603;BME280;28233;55.748;48.752;2022-07-19T01:33:43;98078.44;;;19.48;100.00
42603;BME280;28233;55.748;48.752;2022-07-19T01:35:46;98071.94;;;19.58;100.00
42603;BME280;28233;55.748;48.752;2022-07-19T01:37:49;98065.19;;;19.59;100.00
42603;BME280;28233;55.748;48.752;2022-07-19T01:39:51;98065.97;;;19.60;100.00
42603;BME280;28233;55.748;48.752;2022-07-19T01:41:58;98068.78;;;19.56;100.00
42603;BME280;28233;55.748;48.752;2022-07-19T01:44:01;98059.25;;;19.54;100.00
42603;BME280;28233;55.748;48.752;2022-07-19T01:46:03;98058.47;;;19.53;100.00
42603;BME280;28233;55.748;48.752;2022-07-19T01:48:06;98059.19;;;19.61;100.00
42603;BME280;28233;55.748;48.752;2022-07-19T01:50:11;98056.06;;;19.55;100.00
42603;BME280;28233;55.748;48.752;2022-07-19T01:52:14;98043.88;;;19.46;100.00
42603;BME280;28233;55.748;48.752;2022-07-19T01:54:16;98051.06;;;19.43;100.00
42603;BME280;28233;55.748;48.752;2022-07-19T01:56:19;98052.63;;;19.44;100.00
42603;BME280;28233;55.748;48.752;2022-07-19T01:58:21;98041.88;;;19.46;100.00
42603;BME280;28233;55.748;48.752;2022-07-19T02:00:24;98043.88;;;19.46;100.00
42603;BME280;28233;55.748;48.752;2022-07-19T02:02:27;98041.88;;;19.46;100.00
42603;BME280;28233;55.748;48.752;2022-07-19T02:04:29;98043.31;;;19.58;100.00
42603;BME280;28233;55.748;48.752;2022-07-19T02:06:32;98037.69;;;19.61;100.00
42603;BME280;28233;55.748;48.752;2022-07-19T02:08:35;98044.44;;;19.64;100.00
42603;BME280;28233;55.748;48.752;2022-07-19T02:10:38;98037.25;;;19.63;100.00
42603;BME280;28233;55.748;48.752;2022-07-19T02:12:40;98047.97;;;19.68;100.00
42603;BME280;28233;55.748;48.752;2022-07-19T02:14:43;98038.72;;;19.75;100.00
42603;BME280;28233;55.748;48.752;2022-07-19T02:16:45;98041.50;;;19.75;100.00
42603;BME280;28233;55.748;48.752;2022-07-19T02:18:48;98044.28;;;19.75;100.00
42603;BME280;28233;55.748;48.752;2022-07-19T02:20:50;98039.88;;;19.77;100.00
42603;BME280;28233;55.748;48.752;2022-07-19T02:22:53;98048.97;;;19.81;100.00
42603;BME280;28233;55.748;48.752;2022-07-19T02:24:56;98043.00;;;19.83;100.00
42603;BME280;28233;55.748;48.752;2022-07-19T02:26:58;98054.09;;;19.87;100.00
42603;BME280;28233;55.748;48.752;2022-07-19T02:29:01;98046.44;;;19.94;100.00
42603;BME280;28233;55.748;48.752;2022-07-19T02:31:04;98050.31;;;20.00;100.00
42603;BME280;28233;55.748;48.752;2022-07-19T02:33:06;98052.69;;;20.02;100.00
42603;BME280;28233;55.748;48.752;2022-07-19T02:35:10;98053.16;;;19.97;100.00
42603;BME280;28233;55.748;48.752;2022-07-19T02:37:13;98051.56;;;19.96;100.00
42603;BME280;28233;55.748;48.752;2022-07-19T02:39:15;98048.03;;;19.92;100.00
42603;BME280;28233;55.748;48.752;2022-07-19T02:41:18;98061.72;;;19.82;100.00
42603;BME280;28233;55.748;48.752;2022-07-19T02:43:20;98052.25;;;19.76;100.00
42603;BME280;28233;55.748;48.752;2022-07-19T02:45:23;98058.28;;;19.71;100.00
42603;BME280;28233;55.748;48.752;2022-07-19T02:47:26;98057.53;;;19.63;100.00
42603;BME280;28233;55.748;48.752;2022-07-19T02:49:28;98050.44;;;19.59;100.00
42603;BME280;28233;55.748;48.752;2022-07-19T02:51:31;98049.81;;;19.48;100.00
42603;BME280;28233;55.748;48.752;2022-07-19T02:53:34;98043.91;;;19.42;100.00
42603;BME280;28233;55.748;48.752;2022-07-19T02:55:37;98049.09;;;19.40;100.00
42603;BME280;28233;55.748;48.752;2022-07-19T02:57:39;98046.31;;;19.40;100.00
42603;BME280;28233;55.748;48.752;2022-07-19T02:59:42;98057.41;;;19.43;100.00
42603;BME280;28233;55.748;48.752;2022-07-19T03:01:44;98061.34;;;19.46;100.00
42603;BME280;28233;55.748;48.752;2022-07-19T03:03:47;98070.94;;;19.45;100.00
42603;BME280;28233;55.748;48.752;2022-07-19T03:05:50;98060.97;;;19.44;100.00
42603;BME280;28233;55.748;48.752;2022-07-19T03:07:52;98056.09;;;19.52;100.00
42603;BME280;28233;55.748;48.752;2022-07-19T03:09:55;98057.34;;;19.47;100.00
42603;BME280;28233;55.748;48.752;2022-07-19T03:11:58;98062.53;;;19.49;100.00
42603;BME280;28233;55.748;48.752;2022-07-19T03:14:01;98064.16;;;19.46;100.00
42603;BME280;28233;55.748;48.752;2022-07-19T03:16:04;98061.91;;;19.34;100.00
42603;BME280;28233;55.748;48.752;2022-07-19T03:18:06;98061.47;;;19.35;100.00
42603;BME280;28233;55.748;48.752;2022-07-19T03:20:10;98072.63;;;19.35;100.00
42603;BME280;28233;55.748;48.752;2022-07-19T03:22:12;98061.13;;;19.33;100.00
42603;BME280;28233;55.748;48.752;2022-07-19T03:24:15;98071.84;;;19.35;100.00
42603;BME280;28233;55.748;48.752;2022-07-19T03:26:18;98067.88;;;19.32;100.00
42603;BME280;28233;55.748;48.752;2022-07-19T03:28:20;98069.09;;;19.31;100.00
42603;BME280;28233;55.748;48.752;2022-07-19T03:30:23;98066.78;;;19.26;100.00
42603;BME280;28233;55.748;48.752;2022-07-19T03:32:25;98069.22;;;19.20;100.00
42603;BME280;28233;55.748;48.752;2022-07-19T03:34:29;98074.31;;;19.26;100.00
42603;BME280;28233;55.748;48.752;2022-07-19T03:36:31;98071.16;;;19.23;100.00
42603;BME280;28233;55.748;48.752;2022-07-19T03:38:34;98071.16;;;19.23;100.00
42603;BME280;28233;55.748;48.752;2022-07-19T03:40:37;98070.75;;;19.25;100.00
42603;BME280;28233;55.748;48.752;2022-07-19T03:42:40;98063.63;;;19.24;100.00
42603;BME280;28233;55.748;48.752;2022-07-19T03:44:42;98077.53;;;19.24;100.00
42603;BME280;28233;55.748;48.752;2022-07-19T03:46:45;98078.25;;;19.32;100.00
42603;BME280;28233;55.748;48.752;2022-07-19T03:48:48;98073.38;;;19.39;100.00
42603;BME280;28233;55.748;48.752;2022-07-19T03:50:51;98067.78;;;19.43;100.00
42603;BME280;28233;55.748;48.752;2022-07-19T03:52:53;98070.88;;;19.49;100.00
42603;BME280;28233;55.748;48.752;2022-07-19T03:54:56;98069.31;;;19.48;100.00
42603;BME280;28233;55.748;48.752;2022-07-19T03:56:58;98067.97;;;19.59;100.00
42603;BME280;28233;55.748;48.752;2022-07-19T03:59:01;98066.28;;;19.69;100.00
42603;BME280;28233;55.748;48.752;2022-07-19T04:01:06;98066.94;;;19.80;100.00
42603;BME280;28233;55.748;48.752;2022-07-19T04:03:09;98063.94;;;19.95;100.00
42603;BME280;28233;55.748;48.752;2022-07-19T04:05:12;98074.50;;;20.07;100.00
42603;BME280;28233;55.748;48.752;2022-07-19T04:07:14;98063.63;;;20.16;99.58
42603;BME280;28233;55.748;48.752;2022-07-19T04:09:17;98060.41;;;20.18;97.83
42603;BME280;28233;55.748;48.752;2022-07-19T04:11:19;98058.22;;;20.29;98.10
42603;BME280;28233;55.748;48.752;2022-07-19T04:13:22;98056.13;;;20.37;98.12
42603;BME280;28233;55.748;48.752;2022-07-19T04:15:25;98050.81;;;20.46;97.64
42603;BME280;28233;55.748;48.752;2022-07-19T04:17:27;98052.09;;;20.65;97.31
42603;BME280;28233;55.748;48.752;2022-07-19T04:19:31;98061.00;;;20.80;94.98
42603;BME280;28233;55.748;48.752;2022-07-19T04:21:33;98064.31;;;20.95;94.43
42603;BME280;28233;55.748;48.752;2022-07-19T04:23:36;98064.97;;;21.02;92.48
42603;BME280;28233;55.748;48.752;2022-07-19T04:25:39;98059.31;;;21.06;92.11
42603;BME280;28233;55.748;48.752;2022-07-19T04:27:41;98055.09;;;21.18;91.13
42603;BME280;28233;55.748;48.752;2022-07-19T04:29:44;98054.38;;;21.14;90.96
42603;BME280;28233;55.748;48.752;2022-07-19T04:31:47;98051.81;;;21.03;91.51
42603;BME280;28233;55.748;48.752;2022-07-19T04:33:49;98061.09;;;20.96;92.16
42603;BME280;28233;55.748;48.752;2022-07-19T04:35:52;98049.44;;;21.01;92.43
42603;BME280;28233;55.748;48.752;2022-07-19T04:37:56;98053.03;;;21.22;90.53
42603;BME280;28233;55.748;48.752;2022-07-19T04:39:58;98056.84;;;21.31;88.24
42603;BME280;28233;55.748;48.752;2022-07-19T04:42:01;98053.91;;;21.39;86.77
42603;BME280;28233;55.748;48.752;2022-07-19T04:44:04;98051.97;;;21.36;86.64
42603;BME280;28233;55.748;48.752;2022-07-19T04:46:06;98045.16;;;21.37;87.32
42603;BME280;28233;55.748;48.752;2022-07-19T04:48:10;98038.16;;;21.28;86.30
42603;BME280;28233;55.748;48.752;2022-07-19T04:50:13;98042.50;;;21.29;87.20
42603;BME280;28233;55.748;48.752;2022-07-19T04:52:16;98045.72;;;21.28;87.17
42603;BME280;28233;55.748;48.752;2022-07-19T04:54:18;98039.50;;;21.20;86.53
42603;BME280;28233;55.748;48.752;2022-07-19T04:56:21;98042.72;;;21.19;86.10
42603;BME280;28233;55.748;48.752;2022-07-19T04:58:24;98052.31;;;21.18;85.17
42603;BME280;28233;55.748;48.752;2022-07-19T05:00:26;98042.44;;;21.13;84.95
42603;BME280;28233;55.748;48.752;2022-07-19T05:02:29;98035.06;;;21.23;84.29
42603;BME280;28233;55.748;48.752;2022-07-19T05:04:31;98045.81;;;21.24;83.20
42603;BME280;28233;55.748;48.752;2022-07-19T05:06:34;98047.59;;;21.15;82.35
42603;BME280;28233;55.748;48.752;2022-07-19T05:08:37;98064.69;;;20.97;75.44
42603;BME280;28233;55.748;48.752;2022-07-19T05:10:39;98051.53;;;20.74;71.57
42603;BME280;28233;55.748;48.752;2022-07-19T05:12:42;98064.06;;;20.65;72.07
42603;BME280;28233;55.748;48.752;2022-07-19T05:14:45;98057.00;;;20.57;70.86
42603;BME280;28233;55.748;48.752;2022-07-19T05:16:47;98060.63;;;20.54;71.67
42603;BME280;28233;55.748;48.752;2022-07-19T05:18:52;98053.47;;;20.53;71.31
42603;BME280;28233;55.748;48.752;2022-07-19T05:20:54;98060.66;;;20.51;68.79
42603;BME280;28233;55.748;48.752;2022-07-19T05:22:57;98055.16;;;20.47;67.71
42603;BME280;28233;55.748;48.752;2022-07-19T05:24:59;98063.91;;;20.49;69.07
42603;BME280;28233;55.748;48.752;2022-07-19T05:27:02;98067.41;;;20.53;69.52
42603;BME280;28233;55.748;48.752;2022-07-19T05:29:05;98060.66;;;20.51;67.86
42603;BME280;28233;55.748;48.752;2022-07-19T05:31:07;98074.69;;;20.47;67.99
42603;BME280;28233;55.748;48.752;2022-07-19T05:33:10;98075.59;;;20.40;68.42
42603;BME280;28233;55.748;48.752;2022-07-19T05:35:13;98070.91;;;20.34;69.06
42603;BME280;28233;55.748;48.752;2022-07-19T05:37:15;98073.81;;;20.26;68.77
42603;BME280;28233;55.748;48.752;2022-07-19T05:39:18;98076.19;;;20.28;68.87
42603;BME280;28233;55.748;48.752;2022-07-19T05:41:21;98073.69;;;20.34;67.15
42603;BME280;28233;55.748;48.752;2022-07-19T05:43:25;98073.53;;;20.44;66.58
42603;BME280;28233;55.748;48.752;2022-07-19T05:45:28;98087.38;;;20.52;66.56
42603;BME280;28233;55.748;48.752;2022-07-19T05:47:31;98084.38;;;20.66;66.70
42603;BME280;28233;55.748;48.752;2022-07-19T05:49:33;98077.91;;;20.93;69.89
42603;BME280;28233;55.748;48.752;2022-07-19T05:51:36;98083.97;;;21.11;70.89
42603;BME280;28233;55.748;48.752;2022-07-19T05:53:39;98090.63;;;21.17;70.01
42603;BME280;28233;55.748;48.752;2022-07-19T05:55:41;98082.41;;;21.10;69.46
42603;BME280;28233;55.748;48.752;2022-07-19T05:57:44;98089.53;;;21.11;70.15
42603;BME280;28233;55.748;48.752;2022-07-19T05:59:47;98086.47;;;21.25;71.41
42603;BME280;28233;55.748;48.752;2022-07-19T06:01:49;98094.72;;;21.32;69.74
42603;BME280;28233;55.748;48.752;2022-07-19T06:03:57;98091.41;;;21.41;69.79
42603;BME280;28233;55.748;48.752;2022-07-19T06:06:00;98087.38;;;21.42;69.32
42603;BME280;28233;55.748;48.752;2022-07-19T06:08:03;98091.75;;;21.43;69.72
42603;BME280;28233;55.748;48.752;2022-07-19T06:10:06;98084.88;;;21.48;69.54
42603;BME280;28233;55.748;48.752;2022-07-19T06:12:09;98087.53;;;21.55;69.17
42603;BME280;28233;55.748;48.752;2022-07-19T06:14:11;98093.53;;;21.53;68.27
42603;BME280;28233;55.748;48.752;2022-07-19T06:16:14;98084.09;;;21.47;69.29
42603;BME280;28233;55.748;48.752;2022-07-19T06:18:17;98092.25;;;21.58;71.36
42603;BME280;28233;55.748;48.752;2022-07-19T06:20:21;98089.72;;;21.84;71.62
42603;BME280;28233;55.748;48.752;2022-07-19T06:22:24;98094.28;;;21.94;71.19
42603;BME280;28233;55.748;48.752;2022-07-19T06:24:27;98090.44;;;21.88;71.29
42603;BME280;28233;55.748;48.752;2022-07-19T06:26:29;98100.19;;;21.80;71.63
42603;BME280;28233;55.748;48.752;2022-07-19T06:28:32;98093.94;;;21.92;72.32
42603;BME280;28233;55.748;48.752;2022-07-19T06:30:41;98099.31;;;22.19;71.61
42603;BME280;28233;55.748;48.752;2022-07-19T06:32:44;98096.31;;;22.30;69.05
42603;BME280;28233;55.748;48.752;2022-07-19T06:34:47;98093.78;;;22.35;67.98
42603;BME280;28233;55.748;48.752;2022-07-19T06:36:49;98098.16;;;22.36;67.79
42603;BME280;28233;55.748;48.752;2022-07-19T06:38:52;98104.72;;;22.30;66.05
42603;BME280;28233;55.748;48.752;2022-07-19T06:40:54;98112.16;;;22.16;65.54
42603;BME280;28233;55.748;48.752;2022-07-19T06:42:57;98098.34;;;22.09;65.15
42603;BME280;28233;55.748;48.752;2022-07-19T06:45:00;98103.69;;;22.04;64.97
42603;BME280;28233;55.748;48.752;2022-07-19T06:47:05;98116.00;;;22.06;64.19
42603;BME280;28233;55.748;48.752;2022-07-19T06:49:07;98111.91;;;22.11;63.26
42603;BME280;28233;55.748;48.752;2022-07-19T06:51:10;98109.75;;;21.99;64.03
42603;BME280;28233;55.748;48.752;2022-07-19T06:53:12;98123.75;;;21.99;65.52
42603;BME280;28233;55.748;48.752;2022-07-19T06:55:15;98120.84;;;21.86;65.64
42603;BME280;28233;55.748;48.752;2022-07-19T06:57:18;98124.03;;;21.84;66.37
42603;BME280;28233;55.748;48.752;2022-07-19T06:59:20;98126.72;;;21.71;65.98
42603;BME280;28233;55.748;48.752;2022-07-19T07:01:23;98136.91;;;21.62;67.17
42603;BME280;28233;55.748;48.752;2022-07-19T07:03:26;98130.09;;;21.43;67.35
42603;BME280;28233;55.748;48.752;2022-07-19T07:05:29;98131.75;;;21.40;67.73
42603;BME280;28233;55.748;48.752;2022-07-19T07:07:31;98138.75;;;21.48;68.04
42603;BME280;28233;55.748;48.752;2022-07-19T07:09:34;98123.44;;;21.57;68.83
42603;BME280;28233;55.748;48.752;2022-07-19T07:11:37;98133.09;;;21.72;67.93
42603;BME280;28233;55.748;48.752;2022-07-19T07:13:39;98132.28;;;21.91;65.47
42603;BME280;28233;55.748;48.752;2022-07-19T07:15:42;98129.38;;;22.15;64.90
42603;BME280;28233;55.748;48.752;2022-07-19T07:17:46;98123.59;;;22.26;62.97
42603;BME280;28233;55.748;48.752;2022-07-19T07:19:48;98132.94;;;22.35;62.11
42603;BME280;28233;55.748;48.752;2022-07-19T07:21:51;98145.13;;;22.45;60.56
42603;BME280;28233;55.748;48.752;2022-07-19T07:23:53;98147.50;;;22.47;59.26
42603;BME280;28233;55.748;48.752;2022-07-19T07:25:56;98160.16;;;22.35;58.74
42603;BME280;28233;55.748;48.752;2022-07-19T07:27:59;98173.50;;;22.07;56.56
42603;BME280;28233;55.748;48.752;2022-07-19T07:30:03;98158.25;;;21.92;57.55
42603;BME280;28233;55.748;48.752;2022-07-19T07:32:06;98183.13;;;21.86;57.71
42603;BME280;28233;55.748;48.752;2022-07-19T07:34:09;98172.50;;;21.98;57.38
42603;BME280;28233;55.748;48.752;2022-07-19T07:36:12;98171.53;;;21.88;57.83
42603;BME280;28233;55.748;48.752;2022-07-19T07:38:15;98168.28;;;21.69;57.73
42603;BME280;28233;55.748;48.752;2022-07-19T07:40:18;98186.06;;;21.59;58.85
42603;BME280;28233;55.748;48.752;2022-07-19T07:42:22;98186.13;;;21.56;59.84
42603;BME280;28233;55.748;48.752;2022-07-19T07:44:25;98187.06;;;21.69;60.59
42603;BME280;28233;55.748;48.752;2022-07-19T07:46:28;98185.50;;;21.88;59.61
42603;BME280;28233;55.748;48.752;2022-07-19T07:48:31;98200.28;;;22.08;58.67
42603;BME280;28233;55.748;48.752;2022-07-19T07:50:34;98186.47;;;22.17;58.35
42603;BME280;28233;55.748;48.752;2022-07-19T07:52:36;98208.81;;;22.21;57.25
42603;BME280;28233;55.748;48.752;2022-07-19T07:54:39;98197.81;;;21.90;56.33
42603;BME280;28233;55.748;48.752;2022-07-19T07:57:02;98210.09;;;21.77;56.46
42603;BME280;28233;55.748;48.752;2022-07-19T07:59:05;98209.66;;;21.78;56.02
42603;BME280;28233;55.748;48.752;2022-07-19T08:01:08;98213.66;;;21.77;57.62
42603;BME280;28233;55.748;48.752;2022-07-19T08:03:10;98215.97;;;22.02;59.06
42603;BME280;28233;55.748;48.752;2022-07-19T08:05:13;98208.72;;;22.05;58.14
42603;BME280;28233;55.748;48.752;2022-07-19T08:07:16;98218.41;;;22.20;58.21
42603;BME280;28233;55.748;48.752;2022-07-19T08:09:19;98244.09;;;22.35;57.27
42603;BME280;28233;55.748;48.752;2022-07-19T08:11:21;98237.41;;;22.09;56.45
42603;BME280;28233;55.748;48.752;2022-07-19T08:13:24;98234.53;;;21.92;57.33
42603;BME280;28233;55.748;48.752;2022-07-19T08:15:27;98246.38;;;21.80;57.19
42603;BME280;28233;55.748;48.752;2022-07-19T08:17:29;98237.13;;;21.83;58.12
42603;BME280;28233;55.748;48.752;2022-07-19T08:19:32;98245.28;;;21.94;56.71
42603;BME280;28233;55.748;48.752;2022-07-19T08:21:35;98252.38;;;21.99;55.93
42603;BME280;28233;55.748;48.752;2022-07-19T08:23:38;98227.38;;;22.11;56.11
42603;BME280;28233;55.748;48.752;2022-07-19T08:25:43;98237.50;;;22.25;55.61
42603;BME280;28233;55.748;48.752;2022-07-19T08:27:46;98261.75;;;22.32;56.87
42603;BME280;28233;55.748;48.752;2022-07-19T08:29:49;98255.97;;;22.19;56.71
42603;BME280;28233;55.748;48.752;2022-07-19T08:31:51;98243.00;;;22.09;56.60
42603;BME280;28233;55.748;48.752;2022-07-19T08:33:54;98258.34;;;22.01;57.07
42603;BME280;28233;55.748;48.752;2022-07-19T08:35:57;98266.50;;;21.91;58.00
42603;BME280;28233;55.748;48.752;2022-07-19T08:37:59;98266.28;;;21.82;58.26
42603;BME280;28233;55.748;48.752;2022-07-19T08:40:04;98257.41;;;21.87;59.11
42603;BME280;28233;55.748;48.752;2022-07-19T08:42:07;98252.97;;;22.10;58.90
42603;BME280;28233;55.748;48.752;2022-07-19T08:44:12;98244.66;;;22.26;58.47
42603;BME280;28233;55.748;48.752;2022-07-19T08:46:15;98271.06;;;22.45;58.28
42603;BME280;28233;55.748;48.752;2022-07-19T08:48:21;98255.50;;;22.44;58.10
42603;BME280;28233;55.748;48.752;2022-07-19T08:50:25;98265.50;;;22.62;58.32
42603;BME280;28233;55.748;48.752;2022-07-19T08:52:28;98262.16;;;22.87;58.11
42603;BME280;28233;55.748;48.752;2022-07-19T08:54:31;98282.41;;;23.11;57.72
42603;BME280;28233;55.748;48.752;2022-07-19T08:56:36;98280.00;;;22.93;57.17
42603;BME280;28233;55.748;48.752;2022-07-19T08:58:57;98288.84;;;22.55;58.21
42603;BME280;28233;55.748;48.752;2022-07-19T09:01:00;98276.22;;;22.27;59.17
42603;BME280;28233;55.748;48.752;2022-07-19T09:03:07;98285.34;;;22.31;59.43
42603;BME280;28233;55.748;48.752;2022-07-19T09:05:10;98308.03;;;22.36;59.86
42603;BME280;28233;55.748;48.752;2022-07-19T09:07:18;98285.97;;;22.19;60.59
42603;BME280;28233;55.748;48.752;2022-07-19T09:09:23;98317.38;;;22.06;60.04
42603;BME280;28233;55.748;48.752;2022-07-19T09:11:38;98295.16;;;22.19;60.72
42603;BME280;28233;55.748;48.752;2022-07-19T09:13:41;98286.47;;;22.13;60.34
42603;BME280;28233;55.748;48.752;2022-07-19T09:15:49;98281.50;;;22.01;60.20
42603;BME280;28233;55.748;48.752;2022-07-19T09:18:15;98309.81;;;22.03;60.11
42603;BME280;28233;55.748;48.752;2022-07-19T09:20:26;98289.09;;;22.01;60.36
42603;BME280;28233;55.748;48.752;2022-07-19T09:22:29;98292.56;;;22.08;60.23
42603;BME280;28233;55.748;48.752;2022-07-19T09:24:40;98315.22;;;22.14;60.00
42603;BME280;28233;55.748;48.752;2022-07-19T09:26:58;98298.59;;;22.07;59.76
42603;BME280;28233;55.748;48.752;2022-07-19T09:29:16;98319.72;;;21.88;60.56
42603;BME280;28233;55.748;48.752;2022-07-19T09:31:19;98310.69;;;21.80;61.09
42603;BME280;28233;55.748;48.752;2022-07-19T09:33:24;98329.06;;;21.78;61.09
42603;BME280;28233;55.748;48.752;2022-07-19T09:35:41;98329.94;;;21.74;61.73
42603;BME280;28233;55.748;48.752;2022-07-19T09:37:44;98324.03;;;21.69;62.20
42603;BME280;28233;55.748;48.752;2022-07-19T09:39:54;98335.47;;;21.78;62.49
42603;BME280;28233;55.748;48.752;2022-07-19T09:41:57;98334.19;;;21.83;62.30
42603;BME280;28233;55.748;48.752;2022-07-19T09:44:02;98330.13;;;21.87;62.44
42603;BME280;28233;55.748;48.752;2022-07-19T09:48:49;98337.38;;;22.05;59.44
42603;BME280;28233;55.748;48.752;2022-07-19T09:50:52;98353.16;;;22.15;58.76
42603;BME280;28233;55.748;48.752;2022-07-19T09:52:58;98348.97;;;22.03;57.54
42603;BME280;28233;55.748;48.752;2022-07-19T09:55:06;98387.00;;;22.01;57.38
42603;BME280;28233;55.748;48.752;2022-07-19T09:57:09;98364.06;;;22.09;56.52
42603;BME280;28233;55.748;48.752;2022-07-19T09:59:13;98361.69;;;22.31;56.02
42603;BME280;28233;55.748;48.752;2022-07-19T10:01:16;98374.69;;;22.42;57.04
42603;BME280;28233;55.748;48.752;2022-07-19T10:03:19;98355.66;;;22.53;55.74
42603;BME280;28233;55.748;48.752;2022-07-19T10:05:23;98363.94;;;22.60;56.50
42603;BME280;28233;55.748;48.752;2022-07-19T10:07:26;98365.00;;;22.66;57.33
42603;BME280;28233;55.748;48.752;2022-07-19T10:09:29;98371.16;;;22.57;56.18
42603;BME280;28233;55.748;48.752;2022-07-19T10:11:33;98367.72;;;22.30;57.12
42603;BME280;28233;55.748;48.752;2022-07-19T10:13:36;98390.25;;;22.19;58.00
42603;BME280;28233;55.748;48.752;2022-07-19T10:15:41;98406.44;;;22.08;58.73
42603;BME280;28233;55.748;48.752;2022-07-19T10:20:15;98377.78;;;22.04;60.85
42603;BME280;28233;55.748;48.752;2022-07-19T10:22:21;98379.34;;;22.05;60.13
42603;BME280;28233;55.748;48.752;2022-07-19T10:24:46;98382.38;;;22.14;60.05
42603;BME280;28233;55.748;48.752;2022-07-19T10:26:55;98385.06;;;22.21;59.53
42603;BME280;28233;55.748;48.752;2022-07-19T10:29:14;98396.28;;;22.17;58.95
42603;BME280;28233;55.748;48.752;2022-07-19T10:31:30;98406.31;;;22.15;60.02
42603;BME280;28233;55.748;48.752;2022-07-19T10:33:35;98403.22;;;22.09;59.92
42603;BME280;28233;55.748;48.752;2022-07-19T10:35:41;98395.75;;;22.26;59.18
42603;BME280;28233;55.748;48.752;2022-07-19T10:37:55;98420.78;;;22.10;60.49
42603;BME280;28233;55.748;48.752;2022-07-19T10:39:57;98418.63;;;21.98;60.00
42603;BME280;28233;55.748;48.752;2022-07-19T10:44:16;98440.19;;;21.46;68.53
42603;BME280;28233;55.748;48.752;2022-07-19T10:46:29;98420.78;;;21.05;75.59
42603;BME280;28233;55.748;48.752;2022-07-19T10:50:57;98434.66;;;20.40;75.72
42603;BME280;28233;55.748;48.752;2022-07-19T10:53:00;98434.75;;;20.29;75.28